Time;durP1;ratioP1;P1;durP2;ratioP2;P2;SDS_P1;SDS_P2;PMS_P1;PMS_P2;Temp;Humidity;BMP_temperature;BMP_pressure;BME280_temperature;BME280_humidity;BME280_pressure;Samples;Min_cycle;Max_cycle;Signal;HPM_P1;HPM_P2
2023/05/17 00:02:50;;;;;;;4.53;1.70;;;;;;;7.90;99.06;100312.06;12213563;19;20022;-79
2023/05/17 00:06:52;;;;;;;5.28;1.90;;;;;;;8.03;98.08;100308.44;12186312;19;20015;-79
2023/05/17 00:10:54;;;;;;;4.25;1.50;;;;;;;8.13;97.82;100314.25;12218566;19;20014;-79
2023/05/17 00:14:56;;;;;;;5.65;1.83;;;;;;;8.19;98.05;100316.13;12214886;19;20015;-79
2023/05/17 00:18:57;;;;;;;4.22;1.58;;;;;;;8.28;99.03;100318.59;12193717;19;20082;-79
2023/05/17 00:22:59;;;;;;;4.57;1.27;;;;;;;8.33;100.00;100308.63;12211938;19;20030;-79
2023/05/17 00:27:01;;;;;;;4.72;1.60;;;;;;;8.38;99.78;100307.94;12215887;19;20099;-79
2023/05/17 00:31:03;;;;;;;6.63;1.98;;;;;;;8.36;99.84;100319.16;12195852;19;20014;-79
2023/05/17 00:35:05;;;;;;;3.97;1.73;;;;;;;8.35;98.72;100317.47;12217644;19;20089;-81
2023/05/17 00:39:07;;;;;;;6.30;1.92;;;;;;;8.33;98.20;100318.75;12215737;19;20020;-79
2023/05/17 00:43:09;;;;;;;6.00;1.63;;;;;;;8.32;99.04;100328.06;12193854;19;20010;-79
2023/05/17 00:47:10;;;;;;;4.38;1.65;;;;;;;8.28;99.45;100324.94;12212831;19;20006;-81
2023/05/17 00:51:15;;;;;;;5.88;1.70;;;;;;;8.20;100.00;100323.28;12210758;19;20018;-80
2023/05/17 00:55:18;;;;;;;3.80;1.35;;;;;;;8.09;100.00;100324.00;12193023;19;20582;-79
2023/05/17 00:59:21;;;;;;;;;;;;;;;7.92;100.00;100320.09;12213691;19;20003;-80
2023/05/17 01:03:24;;;;;;;;;;;;;;;7.75;100.00;100328.00;12211471;19;19922;-80
2023/05/17 01:07:26;;;;;;;7.13;1.77;;;;;;;7.62;100.00;100328.06;12188919;19;20336;-81
2023/05/17 01:11:55;;;;;;;6.13;1.63;;;;;;;7.51;100.00;100332.31;12216191;19;20034;-81
2023/05/17 01:16:07;;;;;;;7.97;1.98;;;;;;;7.40;100.00;100336.56;12188793;19;20024;-79
2023/05/17 01:20:16;;;;;;;5.90;2.28;;;;;;;7.30;100.00;100342.50;12214730;19;20021;-81
2023/05/17 01:24:51;;;;;;;6.55;2.25;;;;;;;7.22;100.00;100350.13;12211287;19;20006;-81
2023/05/17 01:28:53;;;;;;;5.85;2.28;;;;;;;7.12;100.00;100355.22;12207382;19;20007;-80
2023/05/17 01:32:57;;;;;;;3.33;2.07;;;;;;;7.08;100.00;100354.81;12223792;19;20010;-80
2023/05/17 01:37:00;;;;;;;4.78;2.28;;;;;;;7.03;100.00;100355.44;12194866;19;20018;-81
2023/05/17 01:41:12;;;;;;;7.75;2.60;;;;;;;6.99;100.00;100353.31;12221067;19;20007;-79
2023/05/17 01:45:25;;;;;;;8.32;2.53;;;;;;;6.92;100.00;100353.34;12212207;19;20007;-81
2023/05/17 01:49:37;;;;;;;6.28;2.33;;;;;;;6.89;100.00;100356.50;12195776;19;20010;-80
2023/05/17 01:53:43;;;;;;;8.75;2.15;;;;;;;6.85;100.00;100361.56;12213786;19;20098;-79
2023/05/17 01:57:47;;;;;;;8.52;2.85;;;;;;;6.87;100.00;100357.75;12192635;19;20026;-79
2023/05/17 02:01:54;;;;;;;5.68;1.98;;;;;;;6.88;100.00;100360.31;12208742;19;20027;-81
2023/05/17 02:05:58;;;;;;;9.63;2.33;;;;;;;6.89;100.00;100366.63;12210657;19;20022;-79
2023/05/17 02:10:01;;;;;;;8.55;2.45;;;;;;;6.84;100.00;100362.63;12198227;19;20710;-79
2023/05/17 02:14:03;;;;;;;5.07;2.00;;;;;;;6.80;100.00;100364.09;12214026;19;20011;-81
2023/05/17 02:18:05;;;;;;;7.07;2.38;;;;;;;6.77;100.00;100367.25;12212627;19;20504;-80
2023/05/17 02:22:07;;;;;;;5.90;2.35;;;;;;;6.75;100.00;100372.13;12191672;19;20014;-80
2023/05/17 02:26:09;;;;;;;7.65;2.40;;;;;;;6.74;100.00;100381.38;12210553;19;20043;-79
2023/05/17 02:30:12;;;;;;;6.50;2.40;;;;;;;6.72;100.00;100371.69;12214500;19;20007;-77
2023/05/17 02:34:18;;;;;;;6.07;2.38;;;;;;;6.67;100.00;100377.81;12188283;19;20455;-80
2023/05/17 02:38:23;;;;;;;7.18;3.00;;;;;;;6.65;100.00;100368.94;12209639;19;20013;-80
2023/05/17 02:42:25;;;;;;;7.78;2.80;;;;;;;6.61;100.00;100376.75;12211545;19;20360;-78
2023/05/17 02:46:29;;;;;;;7.03;2.60;;;;;;;6.61;100.00;100379.50;12188161;19;20015;-81
2023/05/17 02:50:31;;;;;;;6.88;2.78;;;;;;;6.58;100.00;100381.81;12207880;19;20093;-81
2023/05/17 02:54:33;;;;;;;8.07;2.78;;;;;;;6.58;100.00;100395.50;12201807;19;20021;-80
2023/05/17 02:58:35;;;;;;;9.32;3.33;;;;;;;6.57;100.00;100388.31;12188865;19;20029;-80
2023/05/17 03:02:37;;;;;;;9.70;3.83;;;;;;;6.55;100.00;100398.66;12205464;19;20034;-81
2023/05/17 03:06:39;;;;;;;8.50;3.22;;;;;;;6.50;100.00;100406.66;12183398;19;20014;-79
2023/05/17 03:10:41;;;;;;;8.65;2.50;;;;;;;6.43;100.00;100394.84;12211586;19;20011;-81
2023/05/17 03:14:45;;;;;;;6.10;2.85;;;;;;;6.37;100.00;100407.47;12218295;19;20368;-79
2023/05/17 03:18:47;;;;;;;5.75;2.83;;;;;;;6.33;100.00;100412.50;12201437;19;20482;-80
2023/05/17 03:22:49;;;;;;;9.23;2.40;;;;;;;6.30;100.00;100404.72;12222705;19;20034;-80
2023/05/17 03:26:51;;;;;;;10.43;3.40;;;;;;;6.30;100.00;100417.56;12223493;19;20003;-80
2023/05/17 03:30:53;;;;;;;9.95;3.33;;;;;;;6.30;100.00;100418.38;12200266;19;20118;-81
2023/05/17 03:34:55;;;;;;;9.37;2.83;;;;;;;6.30;100.00;100412.06;12220979;19;20484;-79
2023/05/17 03:38:58;;;;;;;9.30;3.33;;;;;;;6.31;100.00;100422.00;12220496;19;20011;-82
2023/05/17 03:43:00;;;;;;;9.57;2.80;;;;;;;6.33;100.00;100430.81;12198820;19;20019;-80
2023/05/17 03:47:03;;;;;;;;;;;;;;;6.31;100.00;100431.03;12219122;19;20030;-78
2023/05/17 03:51:05;;;;;;;5.45;2.60;;;;;;;6.24;100.00;100437.53;12222097;19;19930;-81
2023/05/17 03:55:08;;;;;;;8.02;2.95;;;;;;;6.16;100.00;100435.84;12196197;19;20007;-80
2023/05/17 03:59:10;;;;;;;12.38;3.13;;;;;;;6.12;100.00;100437.28;12221684;19;20014;-81
2023/05/17 04:03:13;;;;;;;;;;;;;;;6.09;100.00;100443.19;12220799;19;20021;-80
2023/05/17 04:07:17;;;;;;;6.80;2.67;;;;;;;6.10;100.00;100445.72;12196910;19;19915;-80
2023/05/17 04:11:22;;;;;;;;;;;;;;;6.15;100.00;100436.88;12222669;19;20014;-80
2023/05/17 04:15:26;;;;;;;8.00;2.67;;;;;;;6.29;100.00;100443.25;12217309;19;19974;-80
2023/05/17 04:19:28;;;;;;;11.52;2.92;;;;;;;6.39;100.00;100449.16;12201467;19;20002;-81
2023/05/17 04:23:31;;;;;;;6.40;2.90;;;;;;;6.50;100.00;100447.72;12219452;19;20494;-81
2023/05/17 04:27:35;;;;;;;5.28;2.60;;;;;;;6.60;100.00;100448.13;12217488;19;20011;-79
2023/05/17 04:31:39;;;;;;;6.50;3.35;;;;;;;6.66;100.00;100450.03;12220608;19;20006;-80
2023/05/17 04:35:41;;;;;;;8.65;3.17;;;;;;;6.68;100.00;100452.59;12214861;19;20082;-81
2023/05/17 04:39:43;;;;;;;10.77;3.47;;;;;;;6.69;100.00;100457.00;12200925;19;20006;-81
2023/05/17 04:43:48;;;;;;;8.65;3.17;;;;;;;6.69;100.00;100465.22;12221855;19;20026;-82
2023/05/17 04:47:58;;;;;;;10.27;3.28;;;;;;;6.68;100.00;100452.59;12220648;19;20011;-81
2023/05/17 04:52:00;;;;;;;8.65;3.28;;;;;;;6.66;100.00;100455.53;12198288;19;20086;-81
2023/05/17 04:56:07;;;;;;;9.18;3.20;;;;;;;6.69;100.00;100471.53;12218047;19;20486;-80
2023/05/17 05:00:10;;;;;;;8.68;3.30;;;;;;;6.70;100.00;100467.78;12218955;19;20015;-81
2023/05/17 05:04:16;;;;;;;8.32;3.05;;;;;;;6.72;100.00;100476.63;12191484;19;20063;-81
2023/05/17 05:08:21;;;;;;;7.60;3.08;;;;;;;6.75;100.00;100492.66;12200435;19;20042;-81
2023/05/17 05:12:25;;;;;;;5.78;2.72;;;;;;;6.79;100.00;100487.59;12225783;19;20039;-81
2023/05/17 05:16:29;;;;;;;6.93;3.00;;;;;;;6.86;100.00;100499.38;12197437;19;20675;-81
2023/05/17 05:20:31;;;;;;;11.57;2.92;;;;;;;6.92;100.00;100509.50;12222340;19;20440;-81
2023/05/17 05:24:36;;;;;;;8.30;2.90;;;;;;;7.00;100.00;100511.22;12204931;19;20022;-80
2023/05/17 05:28:38;;;;;;;8.87;3.53;;;;;;;7.09;100.00;100515.44;12225723;19;20483;-80
2023/05/17 05:32:40;;;;;;;11.37;3.60;;;;;;;7.20;100.00;100522.19;12227468;19;20003;-80
2023/05/17 05:36:46;;;;;;;9.40;3.65;;;;;;;7.29;100.00;100520.94;12198536;19;20045;-81
2023/05/17 05:40:48;;;;;;;7.03;3.00;;;;;;;7.42;100.00;100534.63;12235538;19;20014;-79
2023/05/17 05:44:53;;;;;;;11.43;3.20;;;;;;;7.57;100.00;100533.56;12231803;19;20010;-80
2023/05/17 05:48:56;;;;;;;9.55;3.85;;;;;;;7.69;100.00;100529.94;12195789;19;20014;-80
2023/05/17 05:53:00;;;;;;;10.13;4.10;;;;;;;7.85;100.00;100536.03;12218860;19;20070;-81
2023/05/17 05:57:22;;;;;;;9.95;3.38;;;;;;;7.97;100.00;100546.16;12216351;19;20014;-80
2023/05/17 06:01:27;;;;;;;9.57;3.05;;;;;;;8.12;100.00;100545.91;12197091;19;20002;-80
2023/05/17 06:05:29;;;;;;;7.75;2.70;;;;;;;8.29;100.00;100549.00;12213138;19;20006;-80
2023/05/17 06:09:32;;;;;;;7.85;2.63;;;;;;;8.53;100.00;100555.69;12221561;19;20029;-80
2023/05/17 06:13:35;;;;;;;8.75;2.90;;;;;;;8.72;100.00;100561.34;12202865;19;20014;-81
2023/05/17 06:17:37;;;;;;;12.55;3.70;;;;;;;8.85;100.00;100556.59;12212967;19;20002;-80
2023/05/17 06:21:40;;;;;;;10.35;3.28;;;;;;;9.05;100.00;100563.88;12199044;19;20010;-80
2023/05/17 06:25:41;;;;;;;10.13;3.58;;;;;;;9.20;100.00;100572.66;12217874;19;20006;-81
2023/05/17 06:29:44;;;;;;;;;;;;;;;9.29;100.00;100573.25;12224473;19;20011;-81
2023/05/17 06:33:46;;;;;;;8.45;3.20;;;;;;;9.48;100.00;100579.63;12206397;19;19919;-82
2023/05/17 06:37:48;;;;;;;8.45;3.50;;;;;;;9.80;100.00;100584.00;12223693;19;20106;-80
2023/05/17 06:41:56;;;;;;;11.60;3.25;;;;;;;10.02;100.00;100576.19;12219250;19;20003;-82
2023/05/17 06:45:58;;;;;;;10.75;3.70;;;;;;;10.07;100.00;100582.91;12191991;19;20006;-81
2023/05/17 06:50:04;;;;;;;10.60;3.58;;;;;;;10.18;100.00;100585.75;12222205;19;20002;-84
2023/05/17 06:54:09;;;;;;;10.45;3.30;;;;;;;10.60;100.00;100588.69;12229848;19;20011;-82
2023/05/17 06:58:11;;;;;;;9.30;2.83;;;;;;;11.17;98.28;100596.63;12197726;19;20015;-82
2023/05/17 07:02:14;;;;;;;10.32;3.22;;;;;;;11.58;94.09;100600.47;12219117;19;19998;-82
2023/05/17 07:06:16;;;;;;;11.82;2.95;;;;;;;11.68;91.43;100605.38;12216996;19;20007;-81
2023/05/17 07:10:19;;;;;;;9.75;3.03;;;;;;;11.75;90.78;100609.72;12195670;19;20018;-80
2023/05/17 07:14:22;;;;;;;7.15;2.97;;;;;;;11.80;90.01;100615.34;12217316;19;20018;-80
2023/05/17 07:18:26;;;;;;;9.68;3.28;;;;;;;11.80;88.36;100614.53;12212008;19;20014;-79
2023/05/17 07:22:30;;;;;;;10.43;3.13;;;;;;;11.93;88.71;100610.72;12194541;19;20005;-81
2023/05/17 07:26:32;;;;;;;7.05;2.85;;;;;;;12.09;89.22;100612.78;12213955;19;20185;-80
2023/05/17 07:30:33;;;;;;;10.13;3.20;;;;;;;12.31;81.07;100616.63;12217442;19;20018;-81
2023/05/17 07:34:36;;;;;;;10.57;2.95;;;;;;;12.20;85.01;100620.22;12197700;19;20006;-80
2023/05/17 07:38:40;;;;;;;8.43;3.80;;;;;;;12.34;84.84;100626.31;12238251;19;20079;-82
2023/05/17 07:42:44;;;;;;;9.52;4.25;;;;;;;12.49;84.64;100618.41;12207559;19;20006;-80
2023/05/17 07:46:47;;;;;;;7.53;3.13;;;;;;;12.59;83.61;100612.25;12225083;19;20015;-80
2023/05/17 07:50:48;;;;;;;10.45;3.20;;;;;;;12.85;81.25;100621.06;12224315;19;20047;-80
2023/05/17 07:54:54;;;;;;;9.98;3.90;;;;;;;12.99;79.50;100620.53;12200769;19;20023;-81
2023/05/17 07:58:56;;;;;;;9.52;3.38;;;;;;;13.23;78.38;100629.56;12223180;19;20018;-81
2023/05/17 08:03:01;;;;;;;16.35;7.10;;;;;;;13.50;77.04;100617.91;12231876;19;20135;-81
2023/05/17 08:07:07;;;;;;;11.52;3.97;;;;;;;13.70;74.89;100622.97;12218760;19;20010;-80
2023/05/17 08:11:11;;;;;;;12.13;3.25;;;;;;;14.05;72.28;100613.59;12235680;19;19999;-81
2023/05/17 08:15:13;;;;;;;7.32;2.70;;;;;;;14.21;67.88;100611.88;12238968;19;20021;-82
2023/05/17 08:19:18;;;;;;;5.60;2.72;;;;;;;14.30;66.70;100604.81;12205292;19;20468;-81
2023/05/17 08:23:21;;;;;;;11.15;2.53;;;;;;;14.25;64.60;100608.34;12230025;19;20018;-81
2023/05/17 08:27:25;;;;;;;8.75;3.08;;;;;;;14.35;64.57;100607.66;12232891;19;20023;-81
2023/05/17 08:31:31;;;;;;;7.78;2.90;;;;;;;14.51;65.57;100592.06;12206409;19;20018;-80
2023/05/17 08:35:34;;;;;;;6.22;2.53;;;;;;;14.94;64.50;100594.03;12222846;19;20038;-81
2023/05/17 08:39:37;;;;;;;7.75;2.60;;;;;;;15.22;63.34;100597.66;12205411;19;20006;-80
2023/05/17 08:43:40;;;;;;;8.20;2.58;;;;;;;15.04;61.10;100594.13;12226741;19;20007;-80
2023/05/17 08:47:45;;;;;;;10.32;3.28;;;;;;;14.71;60.85;100589.59;12222415;19;20070;-80
2023/05/17 08:51:57;;;;;;;7.32;2.67;;;;;;;14.23;61.99;100595.84;12207382;19;20018;-81
2023/05/17 08:56:03;;;;;;;9.35;2.88;;;;;;;13.75;62.29;100594.53;12229652;19;20535;-81
2023/05/17 09:00:12;;;;;;;8.18;2.90;;;;;;;13.55;61.29;100587.56;12226826;19;20011;-80
2023/05/17 09:04:15;;;;;;;5.75;2.53;;;;;;;13.55;63.29;100593.09;12204086;19;20011;-81
2023/05/17 09:08:23;;;;;;;8.00;2.63;;;;;;;13.57;60.71;100599.22;12231699;19;20006;-80
2023/05/17 09:12:26;;;;;;;7.30;2.45;;;;;;;13.57;60.87;100607.53;12232474;19;20019;-81
2023/05/17 09:16:30;;;;;;;7.25;2.30;;;;;;;13.63;61.75;100598.22;12197948;19;20014;-80
2023/05/17 09:20:35;;;;;;;7.60;2.50;;;;;;;13.65;60.95;100598.81;12211568;19;20082;-79
2023/05/17 09:24:39;;;;;;;5.43;2.67;;;;;;;13.77;60.83;100601.53;12198542;19;20035;-80
2023/05/17 09:28:43;;;;;;;9.00;2.17;;;;;;;14.16;60.11;100601.56;12219600;19;20026;-78
2023/05/17 09:32:48;;;;;;;7.68;2.53;;;;;;;14.45;58.83;100596.69;12213767;19;20011;-79
2023/05/17 09:36:53;;;;;;;7.78;2.42;;;;;;;14.67;58.31;100593.97;12193626;19;20597;-79
2023/05/17 09:40:59;;;;;;;7.43;2.80;;;;;;;15.16;57.78;100593.16;12216555;19;20025;-80
2023/05/17 09:45:01;;;;;;;13.93;3.47;;;;;;;15.91;55.86;100591.38;12214991;19;20006;-80
2023/05/17 09:49:05;;;;;;;13.07;4.35;;;;;;;16.18;54.35;100600.47;12195617;19;20024;-78
2023/05/17 09:53:38;;;;;;;6.68;2.33;;;;;;;15.98;52.62;100592.00;12215483;19;20014;-79
2023/05/17 09:57:42;;;;;;;7.82;2.67;;;;;;;15.84;53.05;100579.66;12189382;19;20381;-79
2023/05/17 10:01:49;;;;;;;10.55;3.05;;;;;;;16.12;53.04;100582.09;12218035;19;20018;-80
2023/05/17 10:05:52;;;;;;;6.32;2.50;;;;;;;16.66;51.81;100585.69;12210005;19;20033;-79
2023/05/17 10:09:56;;;;;;;11.27;2.50;;;;;;;17.02;50.41;100587.56;12195158;19;20036;-79
2023/05/17 10:14:10;;;;;;;6.68;2.65;;;;;;;17.49;49.70;100591.25;12213797;19;20010;-79
2023/05/17 10:18:15;;;;;;;7.00;2.65;;;;;;;17.21;45.58;100585.09;12224628;19;20040;-81
2023/05/17 10:22:20;;;;;;;9.15;2.30;;;;;;;16.94;45.08;100587.25;12203205;19;20025;-80
2023/05/17 10:26:26;;;;;;;9.13;2.50;;;;;;;16.75;47.34;100584.94;12224116;19;20017;-80
2023/05/17 10:30:29;;;;;;;6.07;2.40;;;;;;;16.97;45.12;100581.13;12239048;19;20391;-83
2023/05/17 10:34:34;;;;;;;10.93;4.78;;;;;;;16.68;44.98;100577.91;12203799;19;20348;-83
2023/05/17 10:38:36;;;;;;;8.82;2.50;;;;;;;16.61;46.35;100573.44;12234031;19;20654;-82
2023/05/17 10:42:53;;;;;;;4.07;2.00;;;;;;;16.94;43.96;100570.53;12218320;19;20044;-83
2023/05/17 10:46:58;;;;;;;5.75;2.38;;;;;;;16.87;45.77;100575.53;12235750;19;20018;-83
2023/05/17 10:51:06;;;;;;;11.95;3.00;;;;;;;16.83;44.26;100569.66;12235849;19;20010;-82
2023/05/17 10:55:11;;;;;;;8.40;2.60;;;;;;;16.76;47.00;100569.91;12244004;19;20022;-81
2023/05/17 10:59:15;;;;;;;;;;;;;;;17.02;46.15;100572.81;12246488;19;20010;-81
2023/05/17 11:03:19;;;;;;;7.82;2.30;;;;;;;16.81;44.75;100566.34;12240412;19;19935;-81
2023/05/17 11:07:24;;;;;;;7.07;2.45;;;;;;;16.79;44.96;100565.75;12222509;19;20021;-81
2023/05/17 11:11:26;;;;;;;5.72;2.30;;;;;;;16.72;44.02;100566.00;12245839;19;19998;-82
2023/05/17 11:15:32;;;;;;;9.20;2.70;;;;;;;16.57;44.59;100563.97;12248725;19;20022;-82
2023/05/17 11:19:35;;;;;;;4.90;2.45;;;;;;;16.49;45.32;100558.09;12229903;19;20006;-82
2023/05/17 11:23:38;;;;;;;6.20;2.20;;;;;;;16.96;45.19;100555.25;12244966;19;20003;-81
2023/05/17 11:27:51;;;;;;;5.82;2.53;;;;;;;17.49;42.98;100552.25;12215851;19;20041;-82
2023/05/17 11:31:54;;;;;;;6.65;2.47;;;;;;;17.83;42.90;100560.94;12236622;19;20011;-83
2023/05/17 11:36:03;;;;;;;5.78;2.00;;;;;;;17.85;40.19;100560.66;12240330;19;20074;-82
2023/05/17 11:40:07;;;;;;;9.35;2.50;;;;;;;17.56;40.75;100563.13;12230518;19;20022;-82
2023/05/17 11:44:10;;;;;;;4.93;2.42;;;;;;;17.81;41.31;100556.75;12251569;19;20099;-82
2023/05/17 11:48:13;;;;;;;10.25;2.90;;;;;;;18.25;39.14;100551.38;12239321;19;20003;-81
2023/05/17 11:52:22;;;;;;;9.27;3.20;;;;;;;17.99;43.14;100547.78;12228256;19;19998;-82
2023/05/17 11:56:25;;;;;;;7.03;2.60;;;;;;;18.35;40.22;100559.72;12248733;19;20115;-81
2023/05/17 12:00:44;;;;;;;5.97;2.60;;;;;;;17.92;40.92;100552.84;12232807;19;20679;-81
2023/05/17 12:04:47;;;;;;;4.40;2.08;;;;;;;17.64;42.77;100549.50;12250989;19;20018;-81
2023/05/17 12:08:51;;;;;;;6.15;2.65;;;;;;;17.68;43.49;100547.81;12256724;19;20042;-82
2023/05/17 12:12:55;;;;;;;5.28;2.42;;;;;;;17.88;42.28;100547.00;12232134;19;20011;-81
2023/05/17 12:17:04;;;;;;;8.57;2.47;;;;;;;17.60;42.86;100544.72;12251372;19;20011;-80
2023/05/17 12:21:13;;;;;;;8.70;2.90;;;;;;;17.19;43.36;100536.34;12249843;19;20002;-81
2023/05/17 12:25:24;;;;;;;5.88;2.97;;;;;;;18.93;43.29;100528.50;12222571;19;20026;-81
2023/05/17 12:29:29;;;;;;;6.97;2.38;;;;;;;19.55;37.72;100523.34;12244921;19;20589;-80
2023/05/17 12:33:35;;;;;;;6.80;2.80;;;;;;;20.91;37.26;100524.94;12251041;19;20006;-82
2023/05/17 12:37:38;;;;;;;8.02;2.67;;;;;;;22.40;33.95;100525.25;12225596;19;20113;-82
2023/05/17 12:41:42;;;;;;;7.53;2.78;;;;;;;23.33;32.96;100527.75;12244145;19;20010;-83
2023/05/17 12:45:44;;;;;;;5.85;2.70;;;;;;;23.69;32.24;100516.44;12214934;19;20011;-82
2023/05/17 12:49:53;;;;;;;5.72;2.60;;;;;;;24.02;32.07;100519.78;12243774;19;20028;-81
2023/05/17 12:53:58;;;;;;;5.40;2.67;;;;;;;25.30;28.95;100507.59;12233445;19;20014;-83
2023/05/17 12:58:03;;;;;;;8.38;2.58;;;;;;;26.11;28.08;100512.44;12214100;19;20088;-83
2023/05/17 13:02:09;;;;;;;8.15;2.78;;;;;;;26.01;28.27;100506.34;12236556;19;20019;-83
2023/05/17 13:07:13;;;;;;;8.43;2.45;;;;;;;24.72;28.58;100503.22;12214300;19;20015;-83
2023/05/17 13:11:24;;;;;;;5.95;2.47;;;;;;;23.04;31.43;100503.66;12238668;19;20046;-81
2023/05/17 13:15:57;;;;;;;6.15;2.53;;;;;;;24.90;29.26;100496.44;12246938;19;20017;-82
2023/05/17 13:20:03;;;;;;;;;;;;;;;26.16;27.84;100497.31;12219391;19;20007;-82
2023/05/17 13:29:40;;;;;;;6.18;2.45;;;;;;;24.03;29.63;100492.47;12143479;19;2004436;-82
2023/05/17 13:33:43;;;;;;;5.82;2.38;;;;;;;25.41;27.46;100482.72;12209689;19;20558;-82
2023/05/17 13:37:47;;;;;;;11.02;2.67;;;;;;;25.81;27.60;100486.09;12236396;19;20017;-84
2023/05/17 13:41:51;;;;;;;7.18;2.47;;;;;;;26.56;26.90;100486.53;12234187;19;20006;-82
2023/05/17 13:45:57;;;;;;;7.22;2.33;;;;;;;27.67;24.93;100481.50;12206815;19;20037;-82
2023/05/17 13:50:00;;;;;;;5.68;2.28;;;;;;;28.54;23.76;100469.97;12237630;19;19998;-83
2023/05/17 13:54:08;;;;;;;6.40;2.78;;;;;;;28.49;22.38;100469.41;12236065;19;20009;-83
2023/05/17 13:58:12;;;;;;;6.28;2.00;;;;;;;28.58;23.16;100459.56;12219066;19;20014;-84
2023/05/17 14:02:17;;;;;;;5.70;2.08;;;;;;;28.59;23.68;100457.59;12237893;19;20015;-84
2023/05/17 14:06:18;;;;;;;5.43;1.70;;;;;;;28.68;24.19;100460.31;12241812;19;20017;-84
2023/05/17 14:10:20;;;;;;;8.18;2.70;;;;;;;28.79;22.48;100458.59;12219857;19;20026;-84
2023/05/17 14:14:26;;;;;;;5.38;2.28;;;;;;;28.76;23.59;100450.81;12239004;19;20040;-83
2023/05/17 14:18:30;;;;;;;7.95;2.15;;;;;;;29.16;22.13;100456.53;12226096;19;20025;-81
2023/05/17 14:22:37;;;;;;;7.35;2.60;;;;;;;29.11;22.31;100468.13;12192520;19;20014;-82
2023/05/17 14:26:39;;;;;;;6.78;2.28;;;;;;;29.15;22.01;100451.22;12229366;19;20010;-83
2023/05/17 14:30:41;;;;;;;4.95;2.03;;;;;;;29.69;21.91;100459.31;12208876;19;20400;-82
2023/05/17 14:34:44;;;;;;;6.57;2.00;;;;;;;30.67;21.53;100455.72;12236929;19;20066;-82
2023/05/17 14:38:46;;;;;;;7.68;2.17;;;;;;;30.46;18.55;100449.50;12222789;19;20401;-81
2023/05/17 14:42:48;;;;;;;5.95;2.10;;;;;;;29.54;21.55;100455.22;12197157;19;20006;-81
2023/05/17 14:46:50;;;;;;;6.00;2.15;;;;;;;28.07;22.04;100447.75;12214253;19;20482;-82
2023/05/17 14:50:52;;;;;;;6.50;2.10;;;;;;;25.59;24.26;100438.38;12211605;19;20010;-82
2023/05/17 14:54:54;;;;;;;12.40;2.47;;;;;;;23.63;25.18;100441.75;12192171;19;20006;-82
2023/05/17 14:58:56;;;;;;;7.30;2.22;;;;;;;22.28;26.44;100435.97;12214010;19;20348;-82
2023/05/17 15:02:58;;;;;;;6.70;2.75;;;;;;;21.81;27.81;100444.44;12210561;19;20010;-80
2023/05/17 15:07:00;;;;;;;5.18;2.22;;;;;;;22.05;27.92;100444.22;12191720;19;20475;-81
2023/05/17 15:11:02;;;;;;;7.78;2.20;;;;;;;21.52;28.86;100457.88;12232495;19;20011;-82
2023/05/17 15:15:06;;;;;;;6.07;2.35;;;;;;;21.10;28.43;100448.44;12221123;19;20434;-86
2023/05/17 15:19:12;;;;;;;14.98;3.28;;;;;;;20.34;29.02;100442.78;12199946;19;20014;-81
2023/05/17 15:23:14;;;;;;;9.57;3.15;;;;;;;19.79;30.69;100450.72;12215348;19;20007;-80
2023/05/17 15:27:16;;;;;;;10.18;2.70;;;;;;;19.38;30.76;100439.91;12221355;19;20010;-82
2023/05/17 15:31:18;;;;;;;8.70;1.90;;;;;;;18.95;32.18;100447.22;12200934;19;20018;-79
2023/05/17 15:35:21;;;;;;;8.30;1.98;;;;;;;19.15;31.48;100440.66;12212171;19;20022;-79
2023/05/17 15:39:24;;;;;;;6.03;2.08;;;;;;;18.87;31.79;100440.31;12214999;19;20078;-82
2023/05/17 15:43:25;;;;;;;9.03;2.03;;;;;;;18.54;32.27;100444.69;12185493;19;20091;-81
2023/05/17 15:47:28;;;;;;;6.28;1.95;;;;;;;18.16;33.32;100433.13;12211335;19;20024;-83
2023/05/17 15:51:43;;;;;;;7.70;1.85;;;;;;;18.05;33.55;100442.66;12186895;19;20006;-81
2023/05/17 15:55:49;;;;;;;7.47;2.20;;;;;;;17.96;33.19;100443.22;12207396;19;20101;-81
2023/05/17 15:59:51;;;;;;;5.50;1.90;;;;;;;17.87;34.30;100455.25;12209875;19;20167;-81
2023/05/17 16:03:54;;;;;;;8.07;2.20;;;;;;;17.67;33.74;100447.75;12191105;19;20038;-79
2023/05/17 16:07:55;;;;;;;9.73;2.55;;;;;;;17.55;34.44;100448.06;12211307;19;20030;-80
2023/05/17 16:11:57;;;;;;;4.90;2.25;;;;;;;17.47;34.30;100446.66;12214566;19;20519;-80
2023/05/17 16:15:59;;;;;;;6.88;2.15;;;;;;;17.36;34.33;100450.56;12186546;19;20014;-79
2023/05/17 16:20:01;;;;;;;6.25;1.70;;;;;;;17.38;35.28;100445.56;12213255;19;20589;-80
2023/05/17 16:24:05;;;;;;;6.82;1.85;;;;;;;17.29;34.75;100447.22;12223412;19;20007;-80
2023/05/17 16:28:07;;;;;;;8.55;3.15;;;;;;;17.02;35.01;100441.94;12210187;19;20003;-81
2023/05/17 16:32:10;;;;;;;7.90;2.03;;;;;;;16.92;35.60;100447.47;12228145;19;20018;-80
2023/05/17 16:36:13;;;;;;;5.22;1.95;;;;;;;16.79;35.83;100458.03;12224812;19;20365;-81
2023/05/17 16:40:17;;;;;;;6.18;1.90;;;;;;;16.75;36.19;100454.13;12214155;19;20010;-81
2023/05/17 16:44:19;;;;;;;5.70;2.13;;;;;;;16.69;35.73;100463.56;12241500;19;20079;-80
2023/05/17 16:48:21;;;;;;;6.40;1.70;;;;;;;16.61;36.14;100459.38;12233399;19;20014;-81
2023/05/17 16:52:23;;;;;;;5.65;2.22;;;;;;;16.57;36.73;100463.81;12210424;19;20494;-80
2023/05/17 16:56:26;;;;;;;8.60;2.80;;;;;;;16.49;37.00;100471.84;12228985;19;20007;-80
2023/05/17 17:00:28;;;;;;;7.70;2.10;;;;;;;16.32;36.41;100467.34;12236234;19;20410;-81
2023/05/17 17:04:31;;;;;;;6.38;2.30;;;;;;;16.21;36.66;100457.28;12219750;19;20014;-82
2023/05/17 17:08:52;;;;;;;4.38;1.75;;;;;;;16.28;36.75;100463.44;12239335;19;20003;-81
2023/05/17 17:13:01;;;;;;;9.30;2.70;;;;;;;16.24;37.23;100453.97;12216406;19;20014;-82
2023/05/17 17:17:29;;;;;;;6.20;2.20;;;;;;;16.27;37.22;100455.34;12232107;19;20021;-81
2023/05/17 17:21:42;;;;;;;8.10;1.70;;;;;;;16.76;37.00;100453.03;12241343;19;20966;-82
2023/05/17 17:26:10;;;;;;;6.07;2.20;;;;;;;16.63;37.01;100461.88;12141859;19;2004503;-81
2023/05/17 17:30:51;;;;;;;11.23;3.05;;;;;;;16.37;37.70;100464.56;12218849;19;20086;-84
2023/05/17 17:34:53;;;;;;;9.17;2.33;;;;;;;16.22;38.26;100458.13;12241132;19;20006;-80
2023/05/17 17:38:55;;;;;;;7.95;1.90;;;;;;;16.03;38.80;100461.38;12234504;19;20015;-84
2023/05/17 17:42:57;;;;;;;10.43;3.23;;;;;;;15.97;38.88;100462.44;12222850;19;20065;-81
2023/05/17 17:46:59;;;;;;;8.38;2.45;;;;;;;15.80;39.09;100459.88;12243472;19;20044;-80
2023/05/17 17:51:01;;;;;;;8.40;2.15;;;;;;;15.70;38.82;100462.56;12256867;19;20018;-81
2023/05/17 17:55:05;;;;;;;10.43;2.77;;;;;;;15.60;39.59;100466.09;12236925;19;20024;-81
2023/05/17 17:59:07;;;;;;;7.85;2.10;;;;;;;15.57;39.78;100465.78;12249220;19;20007;-82
2023/05/17 18:03:08;;;;;;;6.53;2.22;;;;;;;15.44;40.22;100465.16;12238444;19;20010;-81
2023/05/17 18:07:12;;;;;;;7.47;1.97;;;;;;;15.32;41.17;100467.28;12211357;19;20072;-81
2023/05/17 18:11:14;;;;;;;7.40;2.00;;;;;;;15.47;41.19;100470.16;12241147;19;20011;-81
2023/05/17 18:15:26;;;;;;;7.90;1.80;;;;;;;15.26;41.67;100479.44;12237316;19;20082;-82
2023/05/17 18:19:28;;;;;;;5.60;1.85;;;;;;;15.00;42.51;100489.47;12212080;19;20074;-81
2023/05/17 18:23:30;;;;;;;3.90;2.25;;;;;;;14.90;42.26;100481.03;12233047;19;20014;-82
2023/05/17 18:27:32;;;;;;;5.88;1.88;;;;;;;14.74;42.40;100485.59;12228115;19;20043;-82
2023/05/17 18:31:34;;;;;;;8.33;2.33;;;;;;;14.53;43.04;100481.75;12212495;19;20025;-83
2023/05/17 18:35:38;;;;;;;5.75;1.98;;;;;;;14.30;45.95;100482.81;12231664;19;20578;-80
2023/05/17 18:39:40;;;;;;;10.95;2.55;;;;;;;14.02;47.40;100493.00;12207261;19;20037;-84
2023/05/17 18:43:42;;;;;;;6.37;3.17;;;;;;;13.75;48.37;100498.44;12250512;19;20018;-83
2023/05/17 18:47:45;;;;;;;7.95;2.38;;;;;;;13.46;49.83;100492.16;12240271;19;20267;-83
2023/05/17 18:51:48;;;;;;;6.10;2.15;;;;;;;13.17;51.28;100483.06;12217830;19;20018;-83